createdAt,value
2017-02-14T00:02:50.305Z,-81
2017-02-14T00:07:46.539Z,-81
2017-02-14T00:12:43.436Z,-80
2017-02-14T00:17:39.519Z,-79
2017-02-14T00:22:36.466Z,-80
2017-02-14T00:27:33.499Z,-80
2017-02-14T00:32:30.226Z,-82
2017-02-14T00:37:26.609Z,-81
2017-02-14T00:42:22.576Z,-81
2017-02-14T00:47:18.828Z,-81
2017-02-14T00:52:15.215Z,-80
2017-02-14T00:57:11.102Z,-81
2017-02-14T01:02:07.625Z,-78
2017-02-14T01:07:03.704Z,-82
2017-02-14T01:11:59.976Z,-82
2017-02-14T01:16:56.677Z,-81
2017-02-14T01:21:53.570Z,-79
2017-02-14T01:26:49.920Z,-78
2017-02-14T01:31:46.271Z,-80
2017-02-14T01:36:42.550Z,-79
2017-02-14T01:41:38.908Z,-79
2017-02-14T01:46:35.166Z,-81
2017-02-14T01:51:31.227Z,-79
2017-02-14T01:56:27.708Z,-79
2017-02-14T02:01:24.066Z,-80
2017-02-14T02:06:20.210Z,-78
2017-02-14T02:11:16.377Z,-77
2017-02-14T02:16:14.961Z,-78
2017-02-14T02:21:10.884Z,-75
2017-02-14T02:26:07.103Z,-76
2017-02-14T02:31:03.403Z,-77
2017-02-14T02:35:59.410Z,-73
2017-02-14T02:40:56.458Z,-73
2017-02-14T02:45:52.850Z,-76
2017-02-14T02:50:49.243Z,-75
2017-02-14T02:55:45.642Z,-77
2017-02-14T03:00:42.190Z,-78
2017-02-14T03:05:38.516Z,-77
2017-02-14T03:10:35.038Z,-81
2017-02-14T03:15:31.438Z,-79
2017-02-14T03:20:28.446Z,-80
2017-02-14T03:25:25.015Z,-79
2017-02-14T03:30:21.421Z,-80
2017-02-14T03:35:17.693Z,-78
2017-02-14T03:40:13.776Z,-78
2017-02-14T03:45:10.273Z,-80
2017-02-14T03:50:06.501Z,-76
2017-02-14T03:55:03.134Z,-73
2017-02-14T03:59:59.815Z,-79
2017-02-14T04:04:56.792Z,-80
2017-02-14T04:09:53.152Z,-79
2017-02-14T04:14:49.556Z,-80
2017-02-14T04:19:45.825Z,-77
2017-02-14T04:24:42.229Z,-80
2017-02-14T04:29:39.110Z,-80
2017-02-14T04:34:36.151Z,-72
2017-02-14T04:39:32.480Z,-72
2017-02-14T04:44:28.868Z,-78
2017-02-14T04:49:25.834Z,-79
2017-02-14T04:54:22.067Z,-78
2017-02-14T04:59:18.521Z,-78
2017-02-14T05:04:14.367Z,-78
2017-02-14T05:09:10.788Z,-77
2017-02-14T05:14:07.084Z,-79
2017-02-14T05:19:03.345Z,-79
2017-02-14T05:23:59.700Z,-79
2017-02-14T05:28:56.024Z,-77
2017-02-14T05:33:52.447Z,-79
2017-02-14T05:38:48.785Z,-79
2017-02-14T05:43:45.879Z,-79
2017-02-14T05:48:42.129Z,-81
2017-02-14T05:53:38.240Z,-79
2017-02-14T05:58:34.651Z,-79
2017-02-14T06:03:31.006Z,-78
2017-02-14T06:08:27.352Z,-78
2017-02-14T06:13:23.577Z,-80
2017-02-14T06:18:20.197Z,-79
2017-02-14T06:23:16.516Z,-80
2017-02-14T06:28:12.837Z,-80
2017-02-14T06:33:09.093Z,-82
2017-02-14T06:38:05.068Z,-80
2017-02-14T06:43:01.087Z,-78
2017-02-14T06:47:57.250Z,-75
2017-02-14T06:52:53.777Z,-73
2017-02-14T06:57:50.330Z,-78
2017-02-14T07:02:46.630Z,-75
2017-02-14T07:07:43.733Z,-74
2017-02-14T07:12:40.017Z,-75
2017-02-14T07:17:36.191Z,-69
2017-02-14T07:22:32.476Z,-73
2017-02-14T07:27:28.742Z,-71
2017-02-14T07:32:25.198Z,-70
2017-02-14T07:37:21.451Z,-70
2017-02-14T07:42:17.941Z,-70
2017-02-14T07:47:14.277Z,-70
2017-02-14T07:52:11.384Z,-71
2017-02-14T07:57:08.680Z,-68
2017-02-14T08:02:05.109Z,-71
2017-02-14T08:07:01.557Z,-71
2017-02-14T08:11:58.032Z,-71
2017-02-14T08:16:54.755Z,-74
2017-02-14T08:21:51.476Z,-71
2017-02-14T08:26:47.839Z,-69
2017-02-14T08:31:44.421Z,-66
2017-02-14T08:36:41.041Z,-70
2017-02-14T08:41:37.616Z,-70
2017-02-14T08:46:34.148Z,-65
2017-02-14T08:51:30.577Z,-67
2017-02-14T08:56:27.220Z,-71
2017-02-14T09:01:23.991Z,-65
2017-02-14T09:06:20.522Z,-67
2017-02-14T09:11:17.167Z,-67
2017-02-14T09:16:13.759Z,-68
2017-02-14T09:21:10.212Z,-69
2017-02-14T09:26:06.611Z,-67
2017-02-14T09:31:02.563Z,-67
2017-02-14T09:35:59.214Z,-68
2017-02-14T09:40:55.823Z,-71
2017-02-14T09:45:53.383Z,-68
2017-02-14T09:50:50.326Z,-67
2017-02-14T09:55:47.265Z,-68
2017-02-14T10:00:43.825Z,-66
2017-02-14T10:05:40.375Z,-70
2017-02-14T10:10:37.082Z,-69
2017-02-14T10:15:33.595Z,-66
2017-02-14T10:20:30.379Z,-72
2017-02-14T10:25:28.141Z,-71
2017-02-14T10:30:25.252Z,-67
2017-02-14T10:35:23.137Z,-68
2017-02-14T10:40:19.131Z,-67
2017-02-14T10:45:16.087Z,-69
2017-02-14T10:50:12.608Z,-68
2017-02-14T10:55:10.376Z,-68
2017-02-14T11:00:06.670Z,-70
2017-02-14T11:05:03.648Z,-68
2017-02-14T11:10:00.206Z,-69
2017-02-14T11:14:56.924Z,-68
2017-02-14T11:19:53.823Z,-69
2017-02-14T11:24:49.948Z,-70
2017-02-14T11:29:46.436Z,-70
2017-02-14T11:34:43.780Z,-71
2017-02-14T11:39:40.673Z,-67
2017-02-14T11:44:37.412Z,-66
2017-02-14T11:49:34.153Z,-71
2017-02-14T11:54:30.822Z,-70
2017-02-14T11:59:27.274Z,-70
2017-02-14T12:04:23.954Z,-70
2017-02-14T12:09:20.579Z,-71
2017-02-14T12:14:17.150Z,-68
2017-02-14T12:19:13.444Z,-74
2017-02-14T12:24:10.346Z,-81
2017-02-14T12:29:07.359Z,-80
2017-02-14T12:34:03.527Z,-80
2017-02-14T12:39:00.077Z,-78
2017-02-14T12:43:56.521Z,-77
2017-02-14T12:48:52.967Z,-78
2017-02-14T12:53:50.435Z,-69
2017-02-14T12:58:46.698Z,-68
2017-02-14T13:03:43.431Z,-72
2017-02-14T13:08:39.965Z,-74
2017-02-14T13:13:36.529Z,-77
2017-02-14T13:18:32.857Z,-71
2017-02-14T13:23:29.224Z,-73
2017-02-14T13:28:25.854Z,-73
2017-02-14T13:33:22.464Z,-72
2017-02-14T13:38:19.345Z,-79
2017-02-14T13:43:15.968Z,-68
2017-02-14T13:48:11.930Z,-69
2017-02-14T13:53:08.935Z,-71
2017-02-14T13:58:05.608Z,-74
2017-02-14T14:03:02.365Z,-73
2017-02-14T14:07:59.018Z,-75
2017-02-14T14:12:59.043Z,-72
2017-02-14T14:17:55.115Z,-74
2017-02-14T14:22:51.678Z,-72
2017-02-14T14:27:48.419Z,-73
2017-02-14T14:32:45.101Z,-73
2017-02-14T14:37:41.837Z,-72
2017-02-14T14:42:38.557Z,-76
2017-02-14T14:47:35.117Z,-73
2017-02-14T14:52:31.812Z,-73
2017-02-14T14:57:28.476Z,-73
2017-02-14T15:02:25.672Z,-74
2017-02-14T15:07:22.366Z,-73
2017-02-14T15:12:18.436Z,-72
2017-02-14T15:17:14.855Z,-74
2017-02-14T15:22:11.115Z,-78
2017-02-14T15:27:07.578Z,-78
2017-02-14T15:32:03.926Z,-72
2017-02-14T15:37:00.375Z,-74
2017-02-14T15:41:58.490Z,-73
2017-02-14T15:46:55.118Z,-79
2017-02-14T15:51:51.922Z,-71
2017-02-14T15:56:48.228Z,-70
2017-02-14T16:01:44.230Z,-72
2017-02-14T16:06:40.439Z,-73
2017-02-14T16:11:36.903Z,-70
2017-02-14T16:16:32.912Z,-73
2017-02-14T16:21:29.348Z,-72
2017-02-14T16:26:25.752Z,-72
2017-02-14T16:31:22.369Z,-74
2017-02-14T16:36:18.533Z,-76
2017-02-14T16:41:15.036Z,-74
2017-02-14T16:46:11.582Z,-77
2017-02-14T16:51:07.807Z,-75
2017-02-14T16:56:04.171Z,-71
2017-02-14T17:01:00.506Z,-69
2017-02-14T17:05:56.814Z,-71
2017-02-14T17:10:53.273Z,-72
2017-02-14T17:15:49.847Z,-69
2017-02-14T17:20:46.326Z,-75
2017-02-14T17:25:42.867Z,-77
2017-02-14T17:30:39.126Z,-75
2017-02-14T17:35:35.668Z,-76
2017-02-14T17:40:31.799Z,-74
2017-02-14T17:45:28.011Z,-72
2017-02-14T17:50:24.506Z,-75
2017-02-14T17:55:20.468Z,-75
2017-02-14T18:00:16.988Z,-82
2017-02-14T18:05:13.246Z,-74
2017-02-14T18:10:10.164Z,-75
2017-02-14T18:15:06.505Z,-74
2017-02-14T18:20:02.825Z,-75
2017-02-14T18:25:00.113Z,-75
2017-02-14T18:29:56.446Z,-79
2017-02-14T18:34:52.957Z,-79
2017-02-14T18:39:49.095Z,-73
2017-02-14T18:44:46.815Z,-79
2017-02-14T18:49:42.886Z,-81
2017-02-14T18:54:39.203Z,-77
2017-02-14T18:59:35.763Z,-73
2017-02-14T19:04:32.386Z,-78
2017-02-14T19:09:28.701Z,-72
2017-02-14T19:14:25.183Z,-73
2017-02-14T19:19:21.295Z,-75
2017-02-14T19:24:20.604Z,-76
2017-02-14T19:29:16.062Z,-81
2017-02-14T19:34:12.598Z,-73
2017-02-14T19:39:09.149Z,-78
2017-02-14T19:44:05.291Z,-79
2017-02-14T19:49:01.602Z,-74
2017-02-14T19:53:59.204Z,-80
2017-02-14T19:58:55.249Z,-84
2017-02-14T20:03:51.481Z,-84
2017-02-14T20:08:47.676Z,-85
2017-02-14T20:13:43.972Z,-86
2017-02-14T20:18:40.540Z,-86
2017-02-14T20:23:37.560Z,-76
2017-02-14T20:28:33.936Z,-83
2017-02-14T20:33:30.499Z,-83
2017-02-14T20:38:27.660Z,-85
2017-02-14T20:43:23.950Z,-85
2017-02-14T20:48:20.285Z,-71
2017-02-14T20:53:16.565Z,-79
2017-02-14T20:58:13.907Z,-73
2017-02-14T21:03:10.399Z,-79
2017-02-14T21:08:06.841Z,-73
2017-02-14T21:13:03.222Z,-80
2017-02-14T21:17:59.638Z,-77
2017-02-14T21:22:57.104Z,-80
2017-02-14T21:27:53.490Z,-74
2017-02-14T21:32:53.064Z,-83
2017-02-14T21:37:49.238Z,-77
2017-02-14T21:42:45.632Z,-73
2017-02-14T21:47:41.904Z,-72
2017-02-14T21:52:38.317Z,-74
2017-02-14T21:57:34.629Z,-74
2017-02-14T22:02:31.051Z,-74
2017-02-14T22:07:27.436Z,-73
2017-02-14T22:12:24.714Z,-76
2017-02-14T22:17:20.752Z,-74
2017-02-14T22:22:17.842Z,-77
2017-02-14T22:27:13.772Z,-74
2017-02-14T22:32:10.866Z,-74
2017-02-14T22:37:07.014Z,-75
2017-02-14T22:42:03.443Z,-75
2017-02-14T22:46:59.610Z,-74
2017-02-14T22:51:56.268Z,-75
2017-02-14T22:56:52.708Z,-74
2017-02-14T23:01:48.986Z,-73
2017-02-14T23:06:45.426Z,-77
2017-02-14T23:11:41.504Z,-75
2017-02-14T23:16:37.845Z,-75
2017-02-14T23:21:34.306Z,-74
2017-02-14T23:26:30.842Z,-73
2017-02-14T23:31:27.262Z,-73
2017-02-14T23:36:24.213Z,-74
2017-02-14T23:41:20.460Z,-74
2017-02-14T23:46:16.886Z,-74
2017-02-14T23:51:13.001Z,-74
2017-02-14T23:56:09.608Z,-73
